Map

Track Data

SID SEASON NUMBER BASIN SUBBASIN NAME ISO_TIME NATURE LAT LON WMO_WIND WMO_PRES WMO_AGENCY TRACK_TYPE DIST2LAND LANDFALL IFLAG USA_AGENCY USA_ATCF_ID USA_LAT USA_LON USA_RECORD USA_STATUS USA_WIND USA_PRES USA_SSHS USA_R34_NE USA_R34_SE USA_R34_SW USA_R34_NW USA_R50_NE USA_R50_SE USA_R50_SW USA_R50_NW USA_R64_NE USA_R64_SE USA_R64_SW USA_R64_NW USA_POCI USA_ROCI USA_RMW USA_EYE TOKYO_LAT TOKYO_LON TOKYO_GRADE TOKYO_WIND TOKYO_PRES TOKYO_R50_DIR TOKYO_R50_LONG TOKYO_R50_SHORT TOKYO_R30_DIR TOKYO_R30_LONG TOKYO_R30_SHORT TOKYO_LAND CMA_LAT CMA_LON CMA_CAT CMA_WIND CMA_PRES HKO_LAT HKO_LON HKO_CAT HKO_WIND HKO_PRES NEWDELHI_LAT NEWDELHI_LON NEWDELHI_GRADE NEWDELHI_WIND NEWDELHI_PRES NEWDELHI_CI NEWDELHI_DP NEWDELHI_POCI REUNION_LAT REUNION_LON REUNION_TYPE REUNION_WIND REUNION_PRES REUNION_TNUM REUNION_CI REUNION_RMW REUNION_R34_NE REUNION_R34_SE REUNION_R34_SW REUNION_R34_NW REUNION_R50_NE REUNION_R50_SE REUNION_R50_SW REUNION_R50_NW REUNION_R64_NE REUNION_R64_SE REUNION_R64_SW REUNION_R64_NW BOM_LAT BOM_LON BOM_TYPE BOM_WIND BOM_PRES BOM_TNUM BOM_CI BOM_RMW BOM_R34_NE BOM_R34_SE BOM_R34_SW BOM_R34_NW BOM_R50_NE BOM_R50_SE BOM_R50_SW BOM_R50_NW BOM_R64_NE BOM_R64_SE BOM_R64_SW BOM_R64_NW BOM_ROCI BOM_POCI BOM_EYE BOM_POS_METHOD BOM_PRES_METHOD NADI_LAT NADI_LON NADI_CAT NADI_WIND NADI_PRES WELLINGTON_LAT WELLINGTON_LON WELLINGTON_WIND WELLINGTON_PRES DS824_LAT DS824_LON DS824_STAGE DS824_WIND DS824_PRES TD9636_LAT TD9636_LON TD9636_STAGE TD9636_WIND TD9636_PRES TD9635_LAT TD9635_LON TD9635_WIND TD9635_PRES TD9635_ROCI NEUMANN_LAT NEUMANN_LON NEUMANN_CLASS NEUMANN_WIND NEUMANN_PRES MLC_LAT MLC_LON MLC_CLASS MLC_WIND MLC_PRES USA_GUST BOM_GUST BOM_GUST_PER REUNION_GUST REUNION_GUST_PER USA_SEAHGT USA_SEARAD_NE USA_SEARAD_SE USA_SEARAD_SW USA_SEARAD_NW STORM_SPEED STORM_DIR
1923197N06140 1923 41 WP MM NOT_NAMED 1923-07-16 10:00:00 NR 6.00000 140.100 main 877 877 __________O___ -1 6.00000 140.100 4 1 32
1923197N06140 1923 41 WP MM NOT_NAMED 1923-07-16 12:00:00 NR 6.03348 140.107 main 877 877 __________P___ -1 6.03348 140.107 4 1 0
1923197N06140 1923 41 WP MM NOT_NAMED 1923-07-16 15:00:00 NR 6.11489 140.096 main 888 888 __________P___ -1 6.11489 140.096 4 3 341
1923197N06140 1923 41 WP MM NOT_NAMED 1923-07-16 18:00:00 NR 6.27652 140.031 main 907 907 __________P___ -1 6.27652 140.031 4 5 334
1923197N06140 1923 41 WP MM NOT_NAMED 1923-07-16 21:00:00 NR 6.56650 139.877 main 938 935 __________P___ -1 6.56650 139.877 4 7 332
1923197N06140 1923 41 WP MM NOT_NAMED 1923-07-16 22:00:00 NR 6.70000 139.800 main 945 945 __________O___ -1 6.70000 139.800 4 11 330
1923197N06140 1923 41 WP MM NOT_NAMED 1923-07-17 00:00:00 NR 7.02702 139.604 main 965 971 __________P___ -1 7.02702 139.604 4 13 328
1923197N06140 1923 41 WP MM NOT_NAMED 1923-07-17 03:00:00 NR 7.63138 139.216 main 1010 1016 __________P___ -1 7.63138 139.216 4 16 326
1923197N06140 1923 41 WP MM NOT_NAMED 1923-07-17 06:00:00 NR 8.30840 138.737 main 1065 1065 __________P___ -1 8.30840 138.737 4 17 323
1923197N06140 1923 41 WP MM NOT_NAMED 1923-07-17 09:00:00 NR 8.98625 138.192 main 1124 1124 __________P___ -1 8.98625 138.192 4 17 321
1923197N06140 1923 41 WP MM NOT_NAMED 1923-07-17 10:00:00 NR 9.20000 138.000 main 1140 1140 __________O___ -1 9.20000 138.000 4 16 319
1923197N06140 1923 41 WP MM NOT_NAMED 1923-07-17 12:00:00 NR 9.57966 137.660 main 1177 1175 __________P___ -1 9.57966 137.660 4 15 316
1923197N06140 1923 41 WP MM NOT_NAMED 1923-07-17 15:00:00 NR 10.1181 137.106 main 1185 1135 __________P___ -1 10.1181 137.106 4 16 312
1923197N06140 1923 41 WP MM NOT_NAMED 1923-07-17 18:00:00 NR 10.6143 136.481 main 1135 1070 __________P___ -1 10.6143 136.481 4 16 306
1923197N06140 1923 41 WP MM NOT_NAMED 1923-07-17 21:00:00 NR 11.0624 135.764 main 1072 1042 __________P___ -1 11.0624 135.764 4 17 301
1923197N06140 1923 41 WP MM NOT_NAMED 1923-07-17 22:00:00 NR 11.2000 135.500 main 1042 986 __________O___ -1 11.2000 135.500 4 18 297
1923197N06140 1923 41 WP MM NOT_NAMED 1923-07-18 00:00:00 NR 11.4753 134.927 main 986 898 __________P___ -1 11.4753 134.927 4 20 293
1923197N06140 1923 41 WP MM NOT_NAMED 1923-07-18 03:00:00 NR 11.8444 133.980 main 898 794 __________P___ -1 11.8444 133.980 4 20 290
1923197N06140 1923 41 WP MM NOT_NAMED 1923-07-18 06:00:00 NR 12.1605 132.968 main 796 682 __________P___ -1 12.1605 132.968 4 21 286
1923197N06140 1923 41 WP MM NOT_NAMED 1923-07-18 09:00:00 NR 12.4238 131.939 main 682 664 __________P___ -1 12.4238 131.939 4 21 284
1923197N06140 1923 41 WP MM NOT_NAMED 1923-07-18 10:00:00 NR 12.5000 131.600 main 653 594 __________O___ -1 12.5000 131.600 4 20 283
1923197N06140 1923 41 WP MM NOT_NAMED 1923-07-18 12:00:00 NR 12.6522 130.963 main 597 493 __________P___ -1 12.6522 130.963 4 19 282
1923197N06140 1923 41 WP MM NOT_NAMED 1923-07-18 15:00:00 NR 12.8372 130.015 main 493 401 __________P___ -1 12.8372 130.015 4 19 280
1923197N06140 1923 41 WP MM NOT_NAMED 1923-07-18 18:00:00 NR 12.9760 129.069 main 401 299 __________P___ -1 12.9760 129.069 4 19 277
1923197N06140 1923 41 WP MM NOT_NAMED 1923-07-18 21:00:00 NR 13.0749 128.119 main 299 279 __________P___ -1 13.0749 128.119 4 19 276
1923197N06140 1923 41 WP MM NOT_NAMED 1923-07-18 22:00:00 NR 13.1000 127.800 main 269 215 __________O___ -1 13.1000 127.800 4 19 275
1923197N06140 1923 41 WP MM NOT_NAMED 1923-07-19 00:00:00 NR 13.1550 127.156 main 215 132 __________P___ -1 13.1550 127.156 4 19 274
1923197N06140 1923 41 WP MM NOT_NAMED 1923-07-19 03:00:00 NR 13.2067 126.183 main 132 78 __________P___ -1 13.2067 126.183 4 19 272
1923197N06140 1923 41 WP MM NOT_NAMED 1923-07-19 06:00:00 NR 13.2242 125.205 main 78 24 __________P___ -1 13.2242 125.205 4 19 270
1923197N06140 1923 41 WP MM NOT_NAMED 1923-07-19 09:00:00 NR 13.2108 124.226 main 24 10 __________P___ -1 13.2108 124.226 4 19 269
1923197N06140 1923 41 WP MM NOT_NAMED 1923-07-19 10:00:00 NR 13.2000 123.900 main 0 0 __________O___ -1 13.2000 123.900 4 20 266
1923197N06140 1923 41 WP MM NOT_NAMED 1923-07-19 12:00:00 NR 13.1494 123.210 main 10 10 __________P___ -1 13.1494 123.210 4 20 265
1923197N06140 1923 41 WP MM NOT_NAMED 1923-07-19 15:00:00 NR 13.0480 122.174 main 48 0 __________P___ -1 13.0480 122.174 4 20 264
1923197N06140 1923 41 WP MM NOT_NAMED 1923-07-19 18:00:00 NR 12.9513 121.180 main 0 0 __________P___ -1 12.9513 121.180 4 19 265
1923197N06140 1923 41 WP MM NOT_NAMED 1923-07-19 21:00:00 NR 12.9000 120.274 main 39 46 __________P___ -1 12.9000 120.274 4 17 267
1923197N06140 1923 41 WP MM NOT_NAMED 1923-07-19 22:00:00 NR 12.9000 120.000 main 63 63 __________O___ -1 12.9000 120.000 4 15 272
1923197N06140 1923 41 WP MM NOT_NAMED 1923-07-20 00:00:00 NR 12.9289 119.507 main 103 103 __________P___ -1 12.9289 119.507 4 13 277
1923197N06140 1923 41 WP MM NOT_NAMED 1923-07-20 03:00:00 NR 13.0298 118.861 main 158 165 __________P___ -1 13.0298 118.861 4 12 283
1923197N06140 1923 41 WP MM NOT_NAMED 1923-07-20 06:00:00 NR 13.1941 118.295 main 217 217 __________P___ -1 13.1941 118.295 4 11 290
1923197N06140 1923 41 WP MM NOT_NAMED 1923-07-20 09:00:00 NR 13.4150 117.771 main 270 281 __________P___ -1 13.4150 117.771 4 11 294
1923197N06140 1923 41 WP MM NOT_NAMED 1923-07-20 10:00:00 NR 13.5000 117.600 main 292 292 __________O___ -1 13.5000 117.600 4 12 295
1923197N06140 1923 41 WP MM NOT_NAMED 1923-07-20 12:00:00 NR 13.6714 117.210 main 336 336 __________P___ -1 13.6714 117.210 4 13 297
1923197N06140 1923 41 WP MM NOT_NAMED 1923-07-20 15:00:00 NR 13.9726 116.642 main 387 387 __________P___ -1 13.9726 116.642 4 12 301
1923197N06140 1923 41 WP MM NOT_NAMED 1923-07-20 18:00:00 NR 14.3129 116.113 main 426 423 __________P___ -1 14.3129 116.113 4 12 306
1923197N06140 1923 41 WP MM NOT_NAMED 1923-07-20 21:00:00 NR 14.6764 115.641 main 463 463 __________P___ -1 14.6764 115.641 4 12 309
1923197N06140 1923 41 WP MM NOT_NAMED 1923-07-20 22:00:00 NR 14.8000 115.500 main 470 470 __________O___ -1 14.8000 115.500 4 11 313
1923197N06140 1923 41 WP MM NOT_NAMED 1923-07-21 00:00:00 NR 15.0356 115.235 main 495 492 __________P___ -1 15.0356 115.235 4 10 316
1923197N06140 1923 41 WP MM NOT_NAMED 1923-07-21 03:00:00 NR 15.4018 114.895 main 518 518 __________P___ -1 15.4018 114.895 4 10 321
1923197N06140 1923 41 WP MM NOT_NAMED 1923-07-21 06:00:00 NR 15.7808 114.611 main 546 505 __________P___ -1 15.7808 114.611 4 9 327
1923197N06140 1923 41 WP MM NOT_NAMED 1923-07-21 09:00:00 NR 16.1691 114.372 main 505 490 __________P___ -1 16.1691 114.372 4 9 330
1923197N06140 1923 41 WP MM NOT_NAMED 1923-07-21 10:00:00 NR 16.3000 114.300 main 490 453 __________O___ -1 16.3000 114.300 4 9 331
1923197N06140 1923 41 WP MM NOT_NAMED 1923-07-21 12:00:00 NR 16.5634 114.144 main 453 412 __________P___ -1 16.5634 114.144 4 9 333
1923197N06140 1923 41 WP MM NOT_NAMED 1923-07-21 15:00:00 NR 16.9651 113.942 main 412 382 __________P___ -1 16.9651 113.942 4 9 336
1923197N06140 1923 41 WP MM NOT_NAMED 1923-07-21 18:00:00 NR 17.3690 113.774 main 382 339 __________P___ -1 17.3690 113.774 4 9 340
1923197N06140 1923 41 WP MM NOT_NAMED 1923-07-21 21:00:00 NR 17.7688 113.639 main 339 333 __________P___ -1 17.7688 113.639 4 8 343
1923197N06140 1923 41 WP MM NOT_NAMED 1923-07-21 22:00:00 NR 17.9000 113.600 main 333 306 __________O___ -1 17.9000 113.600 4 8 345
1923197N06140 1923 41 WP MM NOT_NAMED 1923-07-22 00:00:00 NR 18.1530 113.532 main 306 290 __________P___ -1 18.1530 113.532 4 8 348
1923197N06140 1923 41 WP MM NOT_NAMED 1923-07-22 03:00:00 NR 18.5262 113.456 main 290 263 __________P___ -1 18.5262 113.456 4 8 350
1923197N06140 1923 41 WP MM NOT_NAMED 1923-07-22 06:00:00 NR 18.8974 113.393 main 263 243 __________P___ -1 18.8974 113.393 4 8 351
1923197N06140 1923 41 WP MM NOT_NAMED 1923-07-22 09:00:00 NR 19.2728 113.327 main 243 242 __________P___ -1 19.2728 113.327 4 8 350
1923197N06140 1923 41 WP MM NOT_NAMED 1923-07-22 10:00:00 NR 19.4000 113.300 main 242 230 __________O___ -1 19.4000 113.300 4 8 347
1923197N06140 1923 41 WP MM NOT_NAMED 1923-07-22 12:00:00 NR 19.6583 113.237 main 230 197 __________P___ -1 19.6583 113.237 4 8 346
1923197N06140 1923 41 WP MM NOT_NAMED 1923-07-22 15:00:00 NR 20.0540 113.123 main 197 151 __________P___ -1 20.0540 113.123 4 8 344
1923197N06140 1923 41 WP MM NOT_NAMED 1923-07-22 18:00:00 NR 20.4570 112.991 main 151 102 __________P___ -1 20.4570 112.991 4 9 342
1923197N06140 1923 41 WP MM NOT_NAMED 1923-07-22 21:00:00 NR 20.8640 112.849 main 102 91 __________P___ -1 20.8640 112.849 4 9 342
1923197N06140 1923 41 WP MM NOT_NAMED 1923-07-22 22:00:00 NR 21.0000 112.800 main 91 __________O___ -1 21.0000 112.800 4 9 342

Digital Typhoon Data and Search

About IBTrACS Database

This database is a web-friendly format of International Best Track Archive for Climate Stewardship (IBTrACS), a global best track data archive curated by NOAA dating back to 1842.

Updated: 2021-10-08